Time;durP1;ratioP1;P1;durP2;ratioP2;P2;SDS_P1;SDS_P2;PMS_P1;PMS_P2;Temp;Humidity;BMP_temperature;BMP_pressure;BME280_temperature;BME280_humidity;BME280_pressure;Samples;Min_cycle;Max_cycle;Signal;HPM_P1;HPM_P2
2021/04/12 00:01:03;;;;;;;10.13;8.60;;;;;;;;;;5119093;28;20066;-47
2021/04/12 00:03:32;;;;;;;9.67;8.43;;;;;;;;;;5127804;27;20031;-52
2021/04/12 00:06:10;;;;;;;10.10;9.00;;;;;;;;;;5131887;28;20144;-47
2021/04/12 00:08:41;;;;;;;9.93;8.40;;;;;;;;;;5122068;27;20501;-48
2021/04/12 00:11:45;;;;;;;12.63;9.83;;;;;;;;;;5115518;27;20073;-50
2021/04/12 00:14:20;;;;;;;13.93;11.20;;;;;;;;;;5068417;28;20083;-47
2021/04/12 00:16:52;;;;;;;15.13;11.80;;;;;;;;;;5064623;28;20091;-46
2021/04/12 00:19:27;;;;;;;17.37;12.43;;;;;;;;;;5062829;28;20036;-50
2021/04/12 00:22:10;;;;;;;16.77;13.17;;;;;;;;;;5054695;28;20070;-52
2021/04/12 00:24:40;;;;;;;17.63;13.27;;;;;;;;;;5056007;28;20408;-49
2021/04/12 00:27:34;;;;;;;16.33;12.70;;;;;;;;;;5054385;28;20029;-50
2021/04/12 00:30:02;;;;;;;14.37;10.83;;;;;;;;;;5056542;28;20036;-45
2021/04/12 00:32:39;;;;;;;8.03;4.97;;;;;;;;;;5062917;28;20033;-48
2021/04/12 00:35:09;;;;;;;15.07;11.23;;;;;;;;;;5053100;28;20115;-46
2021/04/12 00:37:43;;;;;;;7.17;4.50;;;;;;;;;;5055938;28;20076;-49
2021/04/12 00:40:34;;;;;;;9.93;7.53;;;;;;;;;;5072712;28;20028;-48
2021/04/12 00:43:05;;;;;;;8.20;7.13;;;;;;;;;;5048560;28;20041;-47
2021/04/12 00:45:48;;;;;;;6.80;6.03;;;;;;;;;;5118465;27;20095;-49
2021/04/12 00:48:32;;;;;;;3.80;3.40;;;;;;;;;;5134818;27;20019;-50
2021/04/12 00:50:57;;;;;;;3.00;2.70;;;;;;;;;;5118436;27;20039;-48
2021/04/12 00:53:25;;;;;;;5.00;4.50;;;;;;;;;;5114142;28;20022;-48
2021/04/12 00:56:05;;;;;;;6.23;5.63;;;;;;;;;;5119674;27;20047;-52
2021/04/12 00:58:42;;;;;;;5.47;4.97;;;;;;;;;;5126492;27;20023;-49
2021/04/12 01:01:07;;;;;;;5.80;4.80;;;;;;;;;;5133122;27;20696;-50
2021/04/12 01:03:45;;;;;;;3.87;3.53;;;;;;;;;;5130414;27;20024;-49
2021/04/12 01:06:32;;;;;;;3.33;3.03;;;;;;;;;;5124312;27;20015;-50
2021/04/12 01:08:58;;;;;;;2.47;2.17;;;;;;;;;;5121285;27;20020;-48
2021/04/12 01:11:40;;;;;;;3.53;3.23;;;;;;;;;;5112431;27;20340;-48
2021/04/12 01:14:05;;;;;;;5.30;4.17;;;;;;;;;;5116130;27;20034;-49
2021/04/12 01:16:30;;;;;;;1.63;1.30;;;;;;;;;;5115495;27;20462;-51
2021/04/12 01:18:55;;;;;;;3.77;3.47;;;;;;;;;;5117006;27;20019;-51
2021/04/12 01:21:30;;;;;;;2.87;2.50;;;;;;;;;;5120608;27;20076;-51
2021/04/12 01:24:10;;;;;;;3.40;3.10;;;;;;;;;;5114902;28;20072;-49
2021/04/12 01:26:35;;;;;;;3.90;3.50;;;;;;;;;;5128971;27;20024;-50
2021/04/12 01:29:19;;;;;;;4.67;4.10;;;;;;;;;;5133249;27;20117;-50
2021/04/12 01:31:50;;;;;;;4.63;3.50;;;;;;;;;;5127036;27;20016;-50
2021/04/12 01:34:32;;;;;;;4.27;3.37;;;;;;;;;;5134464;27;20023;-53
2021/04/12 01:36:57;;;;;;;4.17;3.53;;;;;;;;;;5132353;27;20092;-50
2021/04/12 01:39:29;;;;;;;3.17;2.90;;;;;;;;;;5115072;27;20474;-52
2021/04/12 01:42:00;;;;;;;3.50;3.20;;;;;;;;;;5111285;28;20029;-47
2021/04/12 01:44:29;;;;;;;2.57;1.63;;;;;;;;;;5114749;28;20114;-50
2021/04/12 01:47:20;;;;;;;2.57;2.37;;;;;;;;;;5114547;28;20504;-50
2021/04/12 01:49:53;;;;;;;3.20;2.90;;;;;;;;;;5096173;27;20046;-50
2021/04/12 01:52:27;;;;;;;3.50;3.20;;;;;;;;;;5119697;27;20051;-52
2021/04/12 01:55:01;;;;;;;1.57;1.27;;;;;;;;;;5116350;27;20023;-52
2021/04/12 01:57:35;;;;;;;3.40;2.50;;;;;;;;;;5133705;27;20015;-48
2021/04/12 02:00:09;;;;;;;2.60;2.20;;;;;;;;;;5130028;27;20036;-48
2021/04/12 02:02:40;;;;;;;1.97;1.83;;;;;;;;;;5129824;27;20019;-50
2021/04/12 02:05:05;;;;;;;3.50;2.10;;;;;;;;;;5114093;28;20064;-53
2021/04/12 02:07:39;;;;;;;3.40;2.43;;;;;;;;;;5114455;27;20012;-49
2021/04/12 02:10:30;;;;;;;2.03;1.60;;;;;;;;;;5113417;28;20016;-52
2021/04/12 02:12:56;;;;;;;2.63;2.27;;;;;;;;;;5108093;28;20382;-51
2021/04/12 02:15:41;;;;;;;4.00;3.60;;;;;;;;;;5122251;27;20019;-50
2021/04/12 02:18:06;;;;;;;4.38;3.97;;;;;;;;;;5092157;27;20387;-51
2021/04/12 02:20:41;;;;;;;4.57;4.00;;;;;;;;;;5130841;27;20027;-52
2021/04/12 02:23:14;;;;;;;6.60;5.88;;;;;;;;;;5119335;27;20018;-50
2021/04/12 02:25:52;;;;;;;5.33;4.83;;;;;;;;;;5128642;27;20391;-51
2021/04/12 02:28:36;;;;;;;1.57;1.13;;;;;;;;;;5113699;27;20027;-48
2021/04/12 02:31:21;;;;;;;5.27;4.57;;;;;;;;;;5115132;27;20023;-49
2021/04/12 02:33:52;;;;;;;6.10;5.40;;;;;;;;;;5134224;27;20022;-50
2021/04/12 02:36:29;;;;;;;7.10;6.30;;;;;;;;;;5118609;27;20063;-47
2021/04/12 02:39:18;;;;;;;6.70;6.00;;;;;;;;;;5113710;27;20098;-50
2021/04/12 02:41:49;;;;;;;7.90;6.30;;;;;;;;;;5114822;27;20039;-50
2021/04/12 02:44:17;;;;;;;7.53;6.60;;;;;;;;;;5113586;28;20031;-50
2021/04/12 02:46:49;;;;;;;10.50;8.27;;;;;;;;;;5119552;27;20027;-49
2021/04/12 02:49:36;;;;;;;8.63;6.43;;;;;;;;;;5113976;27;20113;-48
2021/04/12 02:52:01;;;;;;;7.43;6.67;;;;;;;;;;5110997;27;20543;-48
2021/04/12 02:54:41;;;;;;;9.03;7.30;;;;;;;;;;5113392;28;20031;-51
2021/04/12 02:57:17;;;;;;;6.20;4.67;;;;;;;;;;5114053;27;20042;-49
2021/04/12 03:00:01;;;;;;;9.27;7.90;;;;;;;;;;5125490;27;20031;-49
2021/04/12 03:02:30;;;;;;;8.57;6.27;;;;;;;;;;5114162;27;20024;-49
2021/04/12 03:05:11;;;;;;;8.63;6.10;;;;;;;;;;5116301;27;20027;-48
2021/04/12 03:07:39;;;;;;;5.80;5.23;;;;;;;;;;5133748;27;20019;-51
2021/04/12 03:10:07;;;;;;;7.90;7.07;;;;;;;;;;5131182;27;20063;-49
2021/04/12 03:12:57;;;;;;;8.43;7.53;;;;;;;;;;5129769;27;20099;-52
2021/04/12 03:15:31;;;;;;;6.10;4.67;;;;;;;;;;5115105;27;20036;-51
2021/04/12 03:18:16;;;;;;;5.30;4.23;;;;;;;;;;5132573;27;20015;-51
2021/04/12 03:20:46;;;;;;;3.27;2.23;;;;;;;;;;5121637;27;20035;-51
2021/04/12 03:23:24;;;;;;;3.33;2.97;;;;;;;;;;5110315;28;20101;-51
2021/04/12 03:26:08;;;;;;;3.77;3.07;;;;;;;;;;5117718;28;20046;-54
2021/04/12 03:28:48;;;;;;;3.60;2.70;;;;;;;;;;5133485;28;20012;-51
2021/04/12 03:31:33;;;;;;;2.83;2.43;;;;;;;;;;5127281;27;20027;-49
2021/04/12 03:34:08;;;;;;;3.90;2.55;;;;;;;;;;5110388;28;20027;-50
2021/04/12 03:36:44;;;;;;;2.50;2.13;;;;;;;;;;5121707;28;20031;-52
2021/04/12 03:39:18;;;;;;;3.37;2.97;;;;;;;;;;5133399;27;20011;-48
2021/04/12 03:41:43;;;;;;;3.63;3.33;;;;;;;;;;5129606;27;20019;-48
2021/04/12 03:44:20;;;;;;;3.00;2.70;;;;;;;;;;5137530;27;20046;-53
2021/04/12 03:46:54;;;;;;;4.73;4.03;;;;;;;;;;5136712;27;20078;-52
2021/04/12 03:49:31;;;;;;;5.17;3.97;;;;;;;;;;5133135;27;20054;-51
2021/04/12 03:52:17;;;;;;;4.50;4.10;;;;;;;;;;5130467;27;20075;-50
2021/04/12 03:54:48;;;;;;;4.20;3.80;;;;;;;;;;5096527;27;20036;-50
2021/04/12 03:57:13;;;;;;;1.93;1.80;;;;;;;;;;5135569;27;20027;-51
2021/04/12 04:00:01;;;;;;;4.33;3.37;;;;;;;;;;5130604;27;20068;-49
2021/04/12 04:02:56;;;;;;;3.47;3.17;;;;;;;;;;5109942;27;20102;-52
2021/04/12 04:05:28;;;;;;;3.63;3.27;;;;;;;;;;5116249;28;20019;-52
2021/04/12 04:08:12;;;;;;;3.93;3.33;;;;;;;;;;5117399;27;20026;-50
2021/04/12 04:11:13;;;;;;;4.03;3.40;;;;;;;;;;5124072;27;20027;-49
2021/04/12 04:13:45;;;;;;;5.37;3.50;;;;;;;;;;5064593;28;20024;-51
2021/04/12 04:16:12;;;;;;;3.50;2.80;;;;;;;;;;5065481;28;20171;-52
2021/04/12 04:18:55;;;;;;;3.87;2.80;;;;;;;;;;5060270;28;20404;-52
2021/04/12 04:21:39;;;;;;;3.80;2.63;;;;;;;;;;5050002;28;20087;-51
2021/04/12 04:24:20;;;;;;;3.33;2.50;;;;;;;;;;5067097;28;20024;-48
2021/04/12 04:26:46;;;;;;;3.07;2.00;;;;;;;;;;5062857;28;20134;-49
2021/04/12 04:29:11;;;;;;;2.77;2.27;;;;;;;;;;5065048;28;20511;-52
2021/04/12 04:32:08;;;;;;;2.87;2.07;;;;;;;;;;5056848;28;20168;-51
2021/04/12 04:34:48;;;;;;;2.20;2.00;;;;;;;;;;5009810;28;20034;-52
2021/04/12 04:37:22;;;;;;;3.83;2.03;;;;;;;;;;5013458;28;20041;-50
2021/04/12 04:40:09;;;;;;;3.07;2.50;;;;;;;;;;5012731;28;20041;-50
2021/04/12 04:42:53;;;;;;;2.50;2.30;;;;;;;;;;5019714;28;20521;-50
2021/04/12 04:45:30;;;;;;;2.97;2.60;;;;;;;;;;5000418;28;20034;-52
2021/04/12 04:47:55;;;;;;;3.60;3.10;;;;;;;;;;5037513;28;20041;-51
2021/04/12 04:50:21;;;;;;;3.33;2.63;;;;;;;;;;5047817;28;20052;-49
2021/04/12 04:53:04;;;;;;;2.93;2.63;;;;;;;;;;5049448;28;20033;-51
2021/04/12 04:55:45;;;;;;;3.77;3.17;;;;;;;;;;5051148;28;20404;-51
2021/04/12 04:58:10;;;;;;;3.63;3.13;;;;;;;;;;5050937;28;20049;-49
2021/04/12 05:00:35;;;;;;;4.37;2.93;;;;;;;;;;5051544;28;20029;-54
2021/04/12 05:03:03;;;;;;;3.97;3.57;;;;;;;;;;5049057;28;20488;-53
2021/04/12 05:05:47;;;;;;;4.77;3.80;;;;;;;;;;5048964;28;20013;-51
2021/04/12 05:08:32;;;;;;;4.60;3.97;;;;;;;;;;5051927;28;20021;-51
2021/04/12 05:11:06;;;;;;;4.87;4.10;;;;;;;;;;5110567;27;20050;-52
2021/04/12 05:13:36;;;;;;;5.07;4.33;;;;;;;;;;5132940;27;20098;-48
2021/04/12 05:16:10;;;;;;;5.20;4.33;;;;;;;;;;5132323;27;20043;-48
2021/04/12 05:18:44;;;;;;;5.80;4.75;;;;;;;;;;5121616;27;20015;-44
2021/04/12 05:21:18;;;;;;;5.60;5.00;;;;;;;;;;5116682;27;20340;-52
2021/04/12 05:23:46;;;;;;;5.73;4.53;;;;;;;;;;5115520;27;20176;-47
2021/04/12 05:26:30;;;;;;;5.43;3.80;;;;;;;;;;5135125;27;20104;-47
2021/04/12 05:29:01;;;;;;;4.63;3.80;;;;;;;;;;5133861;27;20019;-49
2021/04/12 05:31:45;;;;;;;5.00;4.30;;;;;;;;;;5121377;27;20023;-48
2021/04/12 05:34:13;;;;;;;4.70;3.73;;;;;;;;;;5123546;27;20043;-50
2021/04/12 05:36:57;;;;;;;3.00;2.70;;;;;;;;;;5133876;27;20027;-50
2021/04/12 05:39:26;;;;;;;5.40;3.97;;;;;;;;;;5115685;27;20081;-47
2021/04/12 05:42:12;;;;;;;4.47;4.00;;;;;;;;;;5111180;28;20023;-47
2021/04/12 05:44:56;;;;;;;4.20;3.77;;;;;;;;;;5118762;27;20026;-49
2021/04/12 05:47:25;;;;;;;5.23;4.40;;;;;;;;;;5134140;27;20054;-46
2021/04/12 05:49:53;;;;;;;4.73;4.20;;;;;;;;;;5132282;27;20026;-46
2021/04/12 05:52:18;;;;;;;5.20;3.83;;;;;;;;;;5130824;27;20462;-52
2021/04/12 05:54:53;;;;;;;5.07;3.83;;;;;;;;;;5127792;27;20062;-50
2021/04/12 05:57:31;;;;;;;4.60;3.80;;;;;;;;;;5129286;27;20019;-54
2021/04/12 06:00:14;;;;;;;5.67;3.67;;;;;;;;;;5120988;27;20026;-49
2021/04/12 06:02:51;;;;;;;4.73;3.67;;;;;;;;;;5121326;27;20022;-52
2021/04/12 06:05:23;;;;;;;4.03;3.57;;;;;;;;;;5133127;27;20420;-52
2021/04/12 06:07:57;;;;;;;5.67;3.57;;;;;;;;;;5132563;27;20015;-48
2021/04/12 06:10:40;;;;;;;2.57;1.90;;;;;;;;;;5119820;27;20098;-47
2021/04/12 06:13:24;;;;;;;5.03;3.63;;;;;;;;;;5123352;27;20026;-47
2021/04/12 06:16:01;;;;;;;4.40;2.53;;;;;;;;;;5121122;27;20068;-46
2021/04/12 06:18:47;;;;;;;5.47;2.43;;;;;;;;;;5122843;27;20474;-47
2021/04/12 06:21:18;;;;;;;5.40;4.00;;;;;;;;;;5105033;27;20046;-49
2021/04/12 06:23:52;;;;;;;5.83;4.23;;;;;;;;;;5123277;27;20098;-47
2021/04/12 06:26:41;;;;;;;8.88;4.53;;;;;;;;;;5119263;27;20020;-50
2021/04/12 06:29:25;;;;;;;5.27;4.07;;;;;;;;;;5124733;27;20031;-51
2021/04/12 06:31:57;;;;;;;5.47;4.70;;;;;;;;;;5119734;27;20023;-45
2021/04/12 06:34:37;;;;;;;5.00;3.80;;;;;;;;;;5125486;27;20033;-49
2021/04/12 06:37:11;;;;;;;5.43;4.77;;;;;;;;;;5122902;27;20554;-49
2021/04/12 06:40:02;;;;;;;2.87;2.13;;;;;;;;;;5129698;27;20507;-48
2021/04/12 06:42:28;;;;;;;4.37;3.03;;;;;;;;;;5114588;27;20089;-48
2021/04/12 06:45:23;;;;;;;7.10;5.87;;;;;;;;;;5120695;27;20405;-48
2021/04/12 06:47:51;;;;;;;7.47;5.10;;;;;;;;;;5125939;27;20027;-51
2021/04/12 06:50:25;;;;;;;5.20;4.57;;;;;;;;;;5121310;27;20106;-53
2021/04/12 06:53:09;;;;;;;3.53;3.20;;;;;;;;;;5128527;27;20035;-51
2021/04/12 06:56:02;;;;;;;6.60;4.87;;;;;;;;;;5133254;27;20024;-53
2021/04/12 06:58:42;;;;;;;7.47;5.90;;;;;;;;;;5124301;27;20038;-51
2021/04/12 07:01:26;;;;;;;7.90;6.57;;;;;;;;;;5117518;27;20271;-49
2021/04/12 07:04:10;;;;;;;7.93;6.53;;;;;;;;;;5116687;27;20060;-51
2021/04/12 07:06:35;;;;;;;7.87;5.70;;;;;;;;;;5117118;27;20454;-50
2021/04/12 07:09:25;;;;;;;11.50;8.67;;;;;;;;;;5132465;27;20073;-50
2021/04/12 07:11:53;;;;;;;10.57;7.47;;;;;;;;;;5128463;27;20015;-50
2021/04/12 07:14:38;;;;;;;10.37;7.73;;;;;;;;;;5122069;27;20059;-50
2021/04/12 07:17:15;;;;;;;10.75;8.00;;;;;;;;;;5123901;27;20068;-50
2021/04/12 07:19:58;;;;;;;9.43;7.07;;;;;;;;;;5119699;27;20482;-52
2021/04/12 07:22:23;;;;;;;11.57;9.67;;;;;;;;;;5129357;27;20023;-52
2021/04/12 07:25:07;;;;;;;7.07;4.37;;;;;;;;;;5125466;27;20015;-52
2021/04/12 07:27:38;;;;;;;12.37;9.40;;;;;;;;;;5121024;28;20060;-50
2021/04/12 07:30:09;;;;;;;11.27;9.30;;;;;;;;;;5129447;28;20091;-53
2021/04/12 07:32:57;;;;;;;10.97;8.63;;;;;;;;;;5127000;28;20015;-50
2021/04/12 07:35:31;;;;;;;11.27;9.13;;;;;;;;;;5112179;28;20027;-51
2021/04/12 07:37:59;;;;;;;10.20;8.27;;;;;;;;;;5118805;28;20527;-50
2021/04/12 07:40:43;;;;;;;10.40;7.87;;;;;;;;;;5120184;28;20027;-51
2021/04/12 07:43:27;;;;;;;12.73;10.50;;;;;;;;;;5118110;28;20020;-50
2021/04/12 07:46:21;;;;;;;9.37;7.70;;;;;;;;;;5132171;28;20117;-53
2021/04/12 07:49:02;;;;;;;10.27;7.20;;;;;;;;;;5120050;28;20488;-51
2021/04/12 07:51:33;;;;;;;12.90;8.73;;;;;;;;;;5129392;28;20065;-47
2021/04/12 07:54:16;;;;;;;12.03;9.67;;;;;;;;;;5133002;28;20123;-46
2021/04/12 07:57:07;;;;;;;9.37;7.47;;;;;;;;;;5131877;28;20037;-51
2021/04/12 07:59:32;;;;;;;11.33;9.43;;;;;;;;;;5093319;28;20049;-51
2021/04/12 08:02:17;;;;;;;10.80;9.47;;;;;;;;;;5112100;28;20027;-53
2021/04/12 08:05:00;;;;;;;12.40;9.70;;;;;;;;;;5133431;28;20547;-53
2021/04/12 08:07:44;;;;;;;12.30;9.87;;;;;;;;;;5131386;28;20030;-51
2021/04/12 08:10:28;;;;;;;12.83;11.07;;;;;;;;;;5131823;27;20466;-54
2021/04/12 08:13:12;;;;;;;11.23;10.03;;;;;;;;;;5129789;28;20040;-48
2021/04/12 08:15:37;;;;;;;12.70;10.50;;;;;;;;;;5115486;28;20107;-52
2021/04/12 08:18:11;;;;;;;8.97;7.33;;;;;;;;;;5132821;28;20470;-50
2021/04/12 08:20:55;;;;;;;12.67;10.30;;;;;;;;;;5126747;28;20551;-48
2021/04/12 08:23:23;;;;;;;12.60;11.00;;;;;;;;;;5121000;28;20372;-51
2021/04/12 08:25:57;;;;;;;14.40;10.97;;;;;;;;;;5126092;28;20020;-50
2021/04/12 08:28:39;;;;;;;13.20;11.63;;;;;;;;;;5132883;27;20067;-51
2021/04/12 08:31:10;;;;;;;11.90;10.47;;;;;;;;;;5125911;27;20479;-51
2021/04/12 08:33:53;;;;;;;12.63;10.70;;;;;;;;;;5116357;28;20102;-52
2021/04/12 08:36:50;;;;;;;11.40;8.80;;;;;;;;;;5115733;28;20020;-46
2021/04/12 08:39:15;;;;;;;;;;;;;;;;;;5120364;27;20050;-49
2021/04/12 08:41:40;;;;;;;11.43;9.15;;;;;;;;;;5128303;27;19954;-53
2021/04/12 08:44:12;;;;;;;12.67;11.30;;;;;;;;;;5129538;27;20597;-52
2021/04/12 08:46:56;;;;;;;12.00;10.17;;;;;;;;;;5115025;28;20023;-54
2021/04/12 08:49:41;;;;;;;6.30;4.83;;;;;;;;;;5127051;27;20068;-51
2021/04/12 08:52:25;;;;;;;5.23;4.07;;;;;;;;;;5125702;27;20331;-48
2021/04/12 08:55:03;;;;;;;9.10;8.10;;;;;;;;;;5132474;27;20081;-49
2021/04/12 08:57:31;;;;;;;3.13;2.37;;;;;;;;;;5129697;27;20051;-53
2021/04/12 09:00:13;;;;;;;12.73;7.20;;;;;;;;;;5130476;27;20499;-51
2021/04/12 09:02:41;;;;;;;10.57;8.70;;;;;;;;;;5130518;27;20046;-52
2021/04/12 09:05:06;;;;;;;9.93;8.80;;;;;;;;;;5134782;27;20027;-48
2021/04/12 09:08:04;;;;;;;11.13;10.03;;;;;;;;;;5134906;27;20496;-48
2021/04/12 09:10:48;;;;;;;11.87;9.00;;;;;;;;;;5135206;27;20027;-51
2021/04/12 09:13:13;;;;;;;15.63;9.93;;;;;;;;;;5133324;27;20079;-50
2021/04/12 09:15:45;;;;;;;11.10;9.57;;;;;;;;;;5134408;27;20446;-50
2021/04/12 09:18:29;;;;;;;10.10;8.53;;;;;;;;;;5134390;27;20031;-48
2021/04/12 09:21:09;;;;;;;7.20;5.93;;;;;;;;;;5133862;27;20031;-50
2021/04/12 09:23:44;;;;;;;10.35;7.15;;;;;;;;;;5129246;27;20019;-46
2021/04/12 09:26:15;;;;;;;6.78;5.30;;;;;;;;;;5127397;27;20035;-47
2021/04/12 09:28:59;;;;;;;7.53;6.43;;;;;;;;;;5129506;27;20438;-50
2021/04/12 09:31:43;;;;;;;7.45;5.03;;;;;;;;;;5128646;27;20442;-50
2021/04/12 09:34:21;;;;;;;12.53;6.90;;;;;;;;;;5131568;27;20026;-45
2021/04/12 09:37:05;;;;;;;6.50;5.80;;;;;;;;;;5116143;27;20408;-49
2021/04/12 09:39:49;;;;;;;10.23;7.70;;;;;;;;;;5133545;27;20019;-49
2021/04/12 09:42:17;;;;;;;8.02;5.45;;;;;;;;;;5128927;27;20568;-47
2021/04/12 09:44:42;;;;;;;8.60;6.05;;;;;;;;;;5133849;27;20019;-54
2021/04/12 09:47:36;;;;;;;8.68;5.07;;;;;;;;;;5129556;27;20019;-50
2021/04/12 09:50:16;;;;;;;5.38;4.80;;;;;;;;;;5131526;27;20021;-49
2021/04/12 09:53:00;;;;;;;6.28;5.68;;;;;;;;;;5082180;28;20360;-47
2021/04/12 09:55:44;;;;;;;5.47;4.97;;;;;;;;;;5075283;28;20483;-46
2021/04/12 09:58:21;;;;;;;6.97;5.15;;;;;;;;;;5075359;28;20050;-51
2021/04/12 10:00:46;;;;;;;5.13;4.63;;;;;;;;;;5080668;28;20476;-49
2021/04/12 10:03:15;;;;;;;5.45;4.95;;;;;;;;;;5089223;28;20038;-50
2021/04/12 10:05:56;;;;;;;6.68;4.72;;;;;;;;;;5073581;28;20440;-49
2021/04/12 10:08:39;;;;;;;8.18;5.68;;;;;;;;;;5075697;28;20395;-51
2021/04/12 10:11:12;;;;;;;4.80;3.17;;;;;;;;;;5090371;28;20054;-52
2021/04/12 10:13:46;;;;;;;5.57;3.80;;;;;;;;;;5092221;28;20073;-51
2021/04/12 10:16:24;;;;;;;3.20;2.38;;;;;;;;;;5091686;28;20487;-52
2021/04/12 10:19:08;;;;;;;4.38;2.67;;;;;;;;;;5075892;28;20024;-46
2021/04/12 10:21:40;;;;;;;5.15;3.95;;;;;;;;;;5085335;28;20068;-48
2021/04/12 10:24:19;;;;;;;3.60;2.90;;;;;;;;;;5092504;28;20055;-51
2021/04/12 10:26:47;;;;;;;7.17;4.87;;;;;;;;;;5088676;28;20031;-49
2021/04/12 10:29:12;;;;;;;2.80;2.03;;;;;;;;;;5079875;28;20031;-49
2021/04/12 10:31:39;;;;;;;2.33;2.13;;;;;;;;;;5086127;28;20024;-46
2021/04/12 10:34:14;;;;;;;5.50;4.40;;;;;;;;;;5077131;28;20431;-52
2021/04/12 10:36:51;;;;;;;6.35;3.60;;;;;;;;;;5079387;28;20502;-51
2021/04/12 10:39:40;;;;;;;6.20;3.30;;;;;;;;;;5081746;28;20034;-52
2021/04/12 10:42:14;;;;;;;5.73;3.30;;;;;;;;;;5081422;28;20395;-47
2021/04/12 10:44:45;;;;;;;5.03;3.30;;;;;;;;;;5072308;28;20017;-51
2021/04/12 10:47:17;;;;;;;3.97;3.20;;;;;;;;;;5078120;28;20024;-47
2021/04/12 10:49:42;;;;;;;3.60;2.27;;;;;;;;;;5089922;28;20073;-51
2021/04/12 10:52:21;;;;;;;4.93;3.60;;;;;;;;;;5121732;27;20059;-49
2021/04/12 10:55:04;;;;;;;4.47;3.60;;;;;;;;;;5132172;27;20030;-53
2021/04/12 10:57:34;;;;;;;4.40;3.40;;;;;;;;;;5126470;27;20049;-47
2021/04/12 11:00:05;;;;;;;5.97;3.87;;;;;;;;;;5127910;27;20016;-49
2021/04/12 11:02:49;;;;;;;4.15;2.70;;;;;;;;;;5130254;27;20019;-52
2021/04/12 11:05:16;;;;;;;4.53;2.83;;;;;;;;;;5133135;27;20011;-50
2021/04/12 11:07:46;;;;;;;4.30;3.28;;;;;;;;;;5128374;27;20034;-48
2021/04/12 11:10:11;;;;;;;4.95;4.03;;;;;;;;;;5128413;27;20094;-47
2021/04/12 11:12:39;;;;;;;5.13;3.53;;;;;;;;;;5127110;27;20090;-51
2021/04/12 11:15:04;;;;;;;5.55;5.10;;;;;;;;;;5131134;27;20130;-48
2021/04/12 11:17:41;;;;;;;5.07;3.95;;;;;;;;;;5128212;27;20119;-50
2021/04/12 11:20:18;;;;;;;4.90;4.35;;;;;;;;;;5130172;27;20547;-53
2021/04/12 11:22:54;;;;;;;4.05;3.75;;;;;;;;;;5128216;27;20030;-49
2021/04/12 11:25:23;;;;;;;5.88;5.35;;;;;;;;;;5120778;27;20105;-51
2021/04/12 11:27:48;;;;;;;6.25;5.22;;;;;;;;;;5130431;27;20023;-50
2021/04/12 11:30:13;;;;;;;6.03;4.97;;;;;;;;;;5121320;27;20478;-50
2021/04/12 11:32:57;;;;;;;6.88;5.00;;;;;;;;;;5127949;28;20019;-50
2021/04/12 11:35:41;;;;;;;4.40;4.00;;;;;;;;;;5124402;28;20386;-48
2021/04/12 11:38:11;;;;;;;5.78;4.90;;;;;;;;;;5124726;28;20079;-52
2021/04/12 11:40:57;;;;;;;5.13;4.53;;;;;;;;;;5130169;27;20031;-50
2021/04/12 11:43:30;;;;;;;4.43;4.03;;;;;;;;;;5128741;28;20031;-49
2021/04/12 11:46:02;;;;;;;6.00;3.60;;;;;;;;;;5111989;28;20020;-46
2021/04/12 11:48:45;;;;;;;5.50;3.38;;;;;;;;;;5117596;28;20052;-47
2021/04/12 11:51:14;;;;;;;6.93;5.60;;;;;;;;;;5121189;28;20354;-48
2021/04/12 11:53:52;;;;;;;8.65;6.20;;;;;;;;;;5117826;27;20031;-49
2021/04/12 11:56:36;;;;;;;6.05;4.82;;;;;;;;;;5126467;28;20023;-51
2021/04/12 11:59:13;;;;;;;5.03;4.55;;;;;;;;;;5121602;28;20016;-50
2021/04/12 12:01:44;;;;;;;6.82;4.32;;;;;;;;;;5126093;28;20495;-51
2021/04/12 12:04:15;;;;;;;5.35;4.55;;;;;;;;;;5134698;27;20486;-51
2021/04/12 12:07:15;;;;;;;2.78;1.50;;;;;;;;;;5125231;27;20020;-49
2021/04/12 12:09:50;;;;;;;3.08;2.72;;;;;;;;;;5052512;28;20071;-53
2021/04/12 12:12:35;;;;;;;4.50;3.40;;;;;;;;;;5041062;28;20037;-49
2021/04/12 12:15:03;;;;;;;4.60;3.53;;;;;;;;;;5052796;28;20275;-47
2021/04/12 12:17:38;;;;;;;2.80;2.15;;;;;;;;;;5052323;28;20094;-50
2021/04/12 12:20:10;;;;;;;4.82;3.30;;;;;;;;;;5051886;28;20475;-50
2021/04/12 12:22:54;;;;;;;2.20;1.70;;;;;;;;;;5048762;28;20029;-50
2021/04/12 12:25:35;;;;;;;2.70;1.95;;;;;;;;;;5050638;28;20091;-52
2021/04/12 12:28:03;;;;;;;1.58;1.40;;;;;;;;;;5037713;28;20036;-50
2021/04/12 12:30:30;;;;;;;1.90;1.77;;;;;;;;;;5044645;28;20033;-53
2021/04/12 12:33:05;;;;;;;3.25;1.95;;;;;;;;;;5048474;28;20028;-49
2021/04/12 12:35:45;;;;;;;2.30;2.03;;;;;;;;;;5050520;28;20067;-50
2021/04/12 12:38:19;;;;;;;4.57;2.33;;;;;;;;;;5050890;28;20475;-52
2021/04/12 12:41:06;;;;;;;2.33;2.22;;;;;;;;;;5049769;28;20028;-49
2021/04/12 12:43:35;;;;;;;3.60;2.67;;;;;;;;;;5081479;27;20058;-50
2021/04/12 12:46:06;;;;;;;2.67;2.10;;;;;;;;;;5135304;27;20474;-51
2021/04/12 12:48:33;;;;;;;3.67;2.58;;;;;;;;;;5134522;27;20072;-50
2021/04/12 12:51:13;;;;;;;1.85;1.38;;;;;;;;;;5129689;27;20043;-53
2021/04/12 12:53:40;;;;;;;4.15;2.67;;;;;;;;;;5118644;27;20019;-50
2021/04/12 12:56:12;;;;;;;5.55;4.00;;;;;;;;;;5133106;27;20083;-52
2021/04/12 12:58:38;;;;;;;2.70;2.00;;;;;;;;;;5125017;27;20261;-47
2021/04/12 13:01:07;;;;;;;3.72;2.50;;;;;;;;;;5131158;27;20058;-50
2021/04/12 13:03:38;;;;;;;4.30;2.63;;;;;;;;;;5131902;27;20079;-52
2021/04/12 13:06:25;;;;;;;4.57;2.63;;;;;;;;;;5131616;27;20027;-52
2021/04/12 13:08:56;;;;;;;3.63;2.40;;;;;;;;;;5128845;27;20128;-52
2021/04/12 13:11:34;;;;;;;3.22;1.50;;;;;;;;;;5135258;27;20041;-53
2021/04/12 13:14:11;;;;;;;3.83;1.90;;;;;;;;;;5132231;27;20046;-49
2021/04/12 13:16:37;;;;;;;2.95;2.58;;;;;;;;;;5132081;27;20008;-51
2021/04/12 13:19:05;;;;;;;3.97;3.30;;;;;;;;;;5133983;27;20098;-49
2021/04/12 13:21:33;;;;;;;3.88;3.55;;;;;;;;;;5114602;27;20200;-53
2021/04/12 13:24:07;;;;;;;4.45;3.90;;;;;;;;;;5129356;27;20022;-54
2021/04/12 13:26:38;;;;;;;1.60;1.30;;;;;;;;;;5132035;27;20481;-50
2021/04/12 13:29:06;;;;;;;5.78;3.38;;;;;;;;;;5131255;27;20478;-48
2021/04/12 13:31:38;;;;;;;6.53;3.50;;;;;;;;;;5114820;27;20098;-47
2021/04/12 13:34:11;;;;;;;4.65;3.50;;;;;;;;;;5133588;27;20023;-47
2021/04/12 13:36:38;;;;;;;7.10;3.50;;;;;;;;;;5122152;27;20015;-53
2021/04/12 13:39:13;;;;;;;4.88;4.43;;;;;;;;;;5117262;27;20022;-52
2021/04/12 13:41:47;;;;;;;2.65;1.90;;;;;;;;;;5122186;27;20102;-48
2021/04/12 13:44:14;;;;;;;4.40;4.00;;;;;;;;;;5125435;27;20032;-51
2021/04/12 13:46:46;;;;;;;3.72;2.75;;;;;;;;;;5127033;27;20019;-47
2021/04/12 13:49:13;;;;;;;6.53;2.80;;;;;;;;;;5134099;27;20015;-52
2021/04/12 13:51:49;;;;;;;6.18;4.03;;;;;;;;;;5128495;27;20050;-46
2021/04/12 13:54:17;;;;;;;4.25;3.85;;;;;;;;;;5124772;27;20439;-47
2021/04/12 13:56:44;;;;;;;4.50;3.42;;;;;;;;;;5126186;27;20015;-50
2021/04/12 13:59:15;;;;;;;4.18;3.53;;;;;;;;;;5126981;27;20056;-48
2021/04/12 14:01:48;;;;;;;4.55;3.60;;;;;;;;;;5124131;27;20034;-48
2021/04/12 14:04:16;;;;;;;3.80;3.50;;;;;;;;;;5124756;27;20110;-52
2021/04/12 14:06:55;;;;;;;4.43;3.40;;;;;;;;;;5125992;27;20031;-49
2021/04/12 14:09:32;;;;;;;4.10;3.03;;;;;;;;;;5127543;27;20084;-53
2021/04/12 14:12:00;;;;;;;6.88;3.53;;;;;;;;;;5126155;27;20106;-51
2021/04/12 14:14:41;;;;;;;4.38;3.22;;;;;;;;;;5131090;27;20064;-50
2021/04/12 14:17:11;;;;;;;2.63;1.65;;;;;;;;;;5126831;27;21531;-51
2021/04/12 14:19:45;;;;;;;1.77;1.20;;;;;;;;;;5128594;27;20084;-52
2021/04/12 14:22:19;;;;;;;4.82;2.40;;;;;;;;;;5123323;27;20055;-52
2021/04/12 14:24:50;;;;;;;5.25;2.38;;;;;;;;;;5121560;27;20413;-50
2021/04/12 14:27:21;;;;;;;2.90;1.63;;;;;;;;;;5129568;27;20015;-50
2021/04/12 14:29:52;;;;;;;2.40;1.33;;;;;;;;;;5125586;27;20016;-51
2021/04/12 14:32:20;;;;;;;5.88;2.10;;;;;;;;;;5127884;27;20022;-50
2021/04/12 14:34:48;;;;;;;3.42;1.10;;;;;;;;;;5132173;27;20023;-46
2021/04/12 14:37:27;;;;;;;3.65;1.95;;;;;;;;;;5131082;27;20030;-48
2021/04/12 14:39:52;;;;;;;4.05;1.70;;;;;;;;;;5125663;27;20011;-49
2021/04/12 14:42:19;;;;;;;3.17;1.70;;;;;;;;;;5126744;27;20052;-46
2021/04/12 14:45:07;;;;;;;2.42;0.98;;;;;;;;;;5116215;27;20069;-51
2021/04/12 14:47:35;;;;;;;2.63;1.88;;;;;;;;;;5132883;27;20033;-50
2021/04/12 14:50:06;;;;;;;3.28;1.35;;;;;;;;;;5129862;27;20064;-50
2021/04/12 14:52:50;;;;;;;1.00;0.90;;;;;;;;;;5128452;27;20061;-46
2021/04/12 14:55:18;;;;;;;3.13;1.08;;;;;;;;;;5119343;27;20016;-48
2021/04/12 14:57:44;;;;;;;2.88;1.70;;;;;;;;;;5130312;27;20027;-54
2021/04/12 15:00:09;;;;;;;2.47;1.25;;;;;;;;;;5130093;27;20493;-52
2021/04/12 15:02:45;;;;;;;1.92;0.95;;;;;;;;;;5126098;27;20102;-52
2021/04/12 15:05:12;;;;;;;2.13;1.60;;;;;;;;;;5124508;27;20023;-49
2021/04/12 15:07:53;;;;;;;3.83;1.75;;;;;;;;;;5132228;27;20023;-52
2021/04/12 15:10:23;;;;;;;2.30;1.08;;;;;;;;;;5113876;27;20030;-47
2021/04/12 15:12:54;;;;;;;1.95;1.20;;;;;;;;;;5124503;27;20106;-52
2021/04/12 15:15:28;;;;;;;3.22;1.15;;;;;;;;;;5112804;27;20098;-52
2021/04/12 15:17:54;;;;;;;3.08;1.92;;;;;;;;;;5127288;27;20023;-51
2021/04/12 15:20:22;;;;;;;3.92;1.80;;;;;;;;;;5127287;27;20106;-50
2021/04/12 15:22:55;;;;;;;4.20;1.65;;;;;;;;;;5126807;27;20137;-51
2021/04/12 15:25:21;;;;;;;4.00;2.08;;;;;;;;;;5127792;27;20033;-49
2021/04/12 15:27:53;;;;;;;2.90;1.40;;;;;;;;;;5125981;27;20011;-50
2021/04/12 15:30:19;;;;;;;5.10;0.90;;;;;;;;;;5130204;27;20060;-50